Historique des stations

Station météo de Bellegarde

Altitude de la station : 121 m







Données météorologiques pour le 06/10/2022
Date
Heure
Températures Humidité Point de rosée Vitesse
du vent
Direction Rafales Windchill Pression Pluviométrie
Cumul
Date
Heure
Températures Humidité Point de rosée Vitesse
du vent
Direction Rafales Windchill Pression Pluviométrie
Cumul
06/10/2022 23:568.7 °C88 %6.8 °C---8.71029 hPa0.0 mm
06/10/2022 23:468.9 °C88 %7.1 °C---8.91029 hPa0.0 mm
06/10/2022 23:419.1 °C88 %7.2 °C---9.11029 hPa0.0 mm
06/10/2022 23:319.2 °C88 %7.3 °C---9.21029 hPa0.0 mm
06/10/2022 23:269.2 °C88 %7.3 °C---9.21029 hPa0.0 mm
06/10/2022 23:169.4 °C87 %7.3 °C---9.41029 hPa0.0 mm
06/10/2022 23:119.4 °C87 %7.4 °C---9.41029 hPa0.0 mm
06/10/2022 23:069.4 °C86 %7.2 °C---9.41029 hPa0.0 mm
06/10/2022 22:569.7 °C85 %7.3 °C---9.71029 hPa0.0 mm
06/10/2022 22:519.9 °C85 %7.5 °C---9.91029 hPa0.0 mm
06/10/2022 22:4110.2 °C85 %7.8 °C---10.21029 hPa0.0 mm
06/10/2022 22:3110.3 °C85 %7.9 °C---10.31029 hPa0.0 mm
06/10/2022 22:2610.4 °C85 %8.0 °C---10.41029 hPa0.0 mm
06/10/2022 22:1610.6 °C84 %8.0 °C---10.61029 hPa0.0 mm
06/10/2022 22:1110.7 °C83 %8.0 °C---10.71029 hPa0.0 mm
06/10/2022 22:0110.9 °C83 %8.2 °C---10.91029 hPa0.0 mm
06/10/2022 21:5611.1 °C83 %8.3 °C---11.11029 hPa0.0 mm
06/10/2022 21:4611.2 °C82 %8.3 °C-ENE2 km/h11.21029 hPa0.0 mm
06/10/2022 21:4111.4 °C81 %8.2 °C2 km/hENE3 km/h11.41029 hPa0.0 mm
06/10/2022 21:3111.7 °C81 %8.5 °C-ENE3 km/h11.71029 hPa0.0 mm
06/10/2022 21:2611.8 °C80 %8.4 °C2 km/hENE3 km/h11.81029 hPa0.0 mm
06/10/2022 21:1611.9 °C80 %8.6 °C---11.91029 hPa0.0 mm
06/10/2022 21:1112.1 °C79 %8.5 °C---12.11029 hPa0.0 mm
06/10/2022 21:0112.3 °C79 %8.7 °C---12.31029 hPa0.0 mm
06/10/2022 20:5612.4 °C79 %8.9 °C---12.41029 hPa0.0 mm
06/10/2022 20:4612.8 °C78 %9.0 °C---12.81029 hPa0.0 mm
06/10/2022 20:4112.9 °C78 %9.2 °C---12.91029 hPa0.0 mm
06/10/2022 20:3113.3 °C75 %9.0 °C-ENE2 km/h13.31029 hPa0.0 mm
06/10/2022 20:2613.5 °C74 %9.0 °C---13.51029 hPa0.0 mm
06/10/2022 20:1613.9 °C72 %8.9 °C-ENE2 km/h13.91030 hPa0.0 mm
06/10/2022 20:1114.2 °C72 %9.2 °C---14.21030 hPa0.0 mm
06/10/2022 20:0114.5 °C72 %9.5 °C---14.51030 hPa0.0 mm
06/10/2022 19:5614.6 °C72 %9.6 °C---14.61030 hPa0.0 mm
06/10/2022 19:4615.1 °C69 %9.4 °C---15.11029 hPa0.0 mm
06/10/2022 19:4115.3 °C68 %9.4 °C---15.31030 hPa0.0 mm
06/10/2022 19:3115.8 °C65 %9.3 °C---15.81029 hPa0.0 mm
06/10/2022 19:2616.2 °C64 %9.4 °C-ENE2 km/h16.21029 hPa0.0 mm
06/10/2022 19:1616.6 °C61 %9.1 °C2 km/hENE3 km/h16.61029 hPa0.0 mm
06/10/2022 19:1116.8 °C59 %8.8 °C2 km/hENE3 km/h16.81029 hPa0.0 mm
06/10/2022 19:0117.3 °C56 %8.4 °C2 km/hE2 km/h17.31029 hPa0.0 mm
06/10/2022 18:5617.5 °C54 %8.1 °C-E3 km/h17.51029 hPa0.0 mm
06/10/2022 18:4618.1 °C55 %8.9 °C2 km/hE3 km/h18.11029 hPa0.0 mm
06/10/2022 18:4118.4 °C55 %9.2 °C2 km/hE3 km/h18.41030 hPa0.0 mm
06/10/2022 18:3118.8 °C53 %9.0 °C2 km/hE5 km/h18.81030 hPa0.0 mm
06/10/2022 18:2618.9 °C52 %8.8 °C-ENE5 km/h18.91030 hPa0.0 mm
06/10/2022 18:1618.9 °C51 %8.6 °C2 km/hN5 km/h18.91030 hPa0.0 mm
06/10/2022 18:1119.1 °C52 %9.0 °C5 km/hNE6 km/h19.11030 hPa0.0 mm
06/10/2022 18:0119.1 °C54 %9.6 °C5 km/hE10 km/h19.11030 hPa0.0 mm
06/10/2022 17:5619.2 °C52 %9.1 °C6 km/hNNE10 km/h19.21030 hPa0.0 mm
06/10/2022 17:4619.6 °C51 %9.1 °C3 km/hENE8 km/h19.61030 hPa0.0 mm
06/10/2022 17:4119.7 °C52 %9.6 °C5 km/hE8 km/h19.71030 hPa0.0 mm
06/10/2022 17:3120.1 °C53 %10.2 °C3 km/hE6 km/h20.11030 hPa0.0 mm
06/10/2022 17:2620.3 °C53 %10.4 °C5 km/hE6 km/h20.31030 hPa0.0 mm
06/10/2022 17:1620.2 °C55 %10.9 °C2 km/hNO5 km/h20.21030 hPa0.0 mm
06/10/2022 17:1120.0 °C52 %9.8 °C-NW5 km/h20.01030 hPa0.0 mm
06/10/2022 17:0119.9 °C55 %10.6 °C3 km/hNNE8 km/h19.91030 hPa0.0 mm
06/10/2022 16:5619.9 °C53 %10.0 °C5 km/hNNE8 km/h19.91030 hPa0.0 mm
06/10/2022 16:4619.8 °C50 %9.1 °C3 km/hNNE8 km/h19.81030 hPa0.0 mm
06/10/2022 16:4119.9 °C52 %9.8 °C3 km/hN8 km/h19.91030 hPa0.0 mm
06/10/2022 16:3120.4 °C52 %10.2 °C2 km/hENE8 km/h20.41030 hPa0.0 mm
06/10/2022 16:2620.6 °C54 %11.0 °C2 km/hENE5 km/h20.61030 hPa0.0 mm
06/10/2022 16:1620.6 °C50 %9.8 °C3 km/hNO6 km/h20.61030 hPa0.0 mm
06/10/2022 16:1120.6 °C53 %10.7 °C5 km/hNNO6 km/h20.61031 hPa0.0 mm
06/10/2022 16:0120.2 °C52 %10.0 °C2 km/hNO5 km/h20.21031 hPa0.0 mm
06/10/2022 15:5620.2 °C55 %10.8 °C2 km/hNNE5 km/h20.21031 hPa0.0 mm
06/10/2022 15:4619.8 °C58 %11.3 °C5 km/hNNO13 km/h19.81031 hPa0.0 mm
06/10/2022 15:4119.7 °C54 %10.1 °C6 km/hN13 km/h19.71031 hPa0.0 mm
06/10/2022 15:3119.5 °C61 %11.8 °C2 km/hNO5 km/h19.51031 hPa0.0 mm
06/10/2022 15:2619.4 °C55 %10.2 °C3 km/hNNO6 km/h19.41031 hPa0.0 mm
06/10/2022 15:1619.8 °C55 %10.5 °C3 km/hNO6 km/h19.81031 hPa0.0 mm
06/10/2022 15:1119.7 °C58 %11.2 °C-SSE11 km/h19.71031 hPa0.0 mm
06/10/2022 15:0119.2 °C58 %10.7 °C5 km/hESE8 km/h19.21031 hPa0.0 mm
06/10/2022 14:5619.2 °C55 %10.0 °C6 km/hENE10 km/h19.21031 hPa0.0 mm
06/10/2022 14:4619.1 °C56 %10.1 °C3 km/hO10 km/h19.11031 hPa0.0 mm
06/10/2022 14:4119.3 °C53 %9.5 °C5 km/hNE8 km/h19.31031 hPa0.0 mm
06/10/2022 14:3119.2 °C55 %9.9 °C2 km/hNNO6 km/h19.21031 hPa0.0 mm
06/10/2022 14:2619.1 °C55 %9.9 °C2 km/hSE6 km/h19.11031 hPa0.0 mm
06/10/2022 14:1618.7 °C56 %9.8 °C3 km/hSE8 km/h18.71031 hPa0.0 mm
06/10/2022 14:1118.6 °C57 %9.9 °C2 km/hNW8 km/h18.61031 hPa0.0 mm
06/10/2022 14:0119.1 °C56 %10.1 °C5 km/hN13 km/h19.11031 hPa0.0 mm
06/10/2022 13:5618.7 °C60 %10.8 °C8 km/hNW13 km/h18.71032 hPa0.0 mm
06/10/2022 13:4618.3 °C60 %10.4 °C10 km/hNNO10 km/h18.31032 hPa0.0 mm
06/10/2022 13:3117.9 °C59 %9.8 °C5 km/hNE11 km/h17.91032 hPa0.0 mm
06/10/2022 13:2618.3 °C59 %10.2 °C5 km/hNE11 km/h18.31032 hPa0.0 mm
06/10/2022 13:1618.1 °C61 %10.5 °C3 km/hE8 km/h18.11032 hPa0.0 mm
06/10/2022 13:1117.9 °C61 %10.3 °C3 km/hNW6 km/h17.91032 hPa0.0 mm
06/10/2022 13:0117.7 °C63 %10.6 °C3 km/hNNE6 km/h17.71032 hPa0.0 mm
06/10/2022 12:5617.5 °C64 %10.6 °C6 km/hNE8 km/h17.51032 hPa0.0 mm
06/10/2022 12:4617.3 °C64 %10.5 °C3 km/h8 km/h17.31032 hPa0.0 mm
06/10/2022 12:4117.4 °C63 %10.3 °C3 km/hNNO8 km/h17.41032 hPa0.0 mm
06/10/2022 12:3117.4 °C65 %10.7 °C3 km/hNE8 km/h17.41032 hPa0.0 mm
06/10/2022 12:2617.1 °C67 %10.9 °C3 km/hE6 km/h17.11032 hPa0.0 mm
06/10/2022 12:1616.7 °C68 %10.7 °C3 km/hNE8 km/h16.71032 hPa0.0 mm
06/10/2022 12:1116.4 °C67 %10.2 °C3 km/hNE10 km/h16.41032 hPa0.0 mm
06/10/2022 12:0116.3 °C69 %10.6 °C3 km/hNE11 km/h16.31032 hPa0.0 mm
06/10/2022 11:5616.2 °C70 %10.7 °C3 km/hNE11 km/h16.21032 hPa0.0 mm
06/10/2022 11:4616.2 °C68 %10.3 °C5 km/hNNE10 km/h16.21032 hPa0.0 mm
06/10/2022 11:4116.2 °C70 %10.7 °C5 km/hNE10 km/h16.21032 hPa0.0 mm
06/10/2022 11:3115.8 °C71 %10.5 °C6 km/hNNE13 km/h15.81032 hPa0.0 mm
06/10/2022 11:2615.6 °C73 %10.7 °C3 km/hN13 km/h15.61032 hPa0.0 mm
06/10/2022 11:1615.4 °C74 %10.8 °C6 km/hNE11 km/h15.41032 hPa0.0 mm
06/10/2022 11:1115.3 °C73 %10.5 °C3 km/hNE11 km/h15.31032 hPa0.0 mm
06/10/2022 11:0115.1 °C74 %10.5 °C5 km/hNNO8 km/h15.11032 hPa0.0 mm
06/10/2022 10:5615.1 °C75 %10.7 °C3 km/hN11 km/h15.11032 hPa0.0 mm
06/10/2022 10:4614.7 °C77 %10.7 °C3 km/hNNO8 km/h14.71032 hPa0.0 mm
06/10/2022 10:4114.6 °C78 %10.8 °C3 km/hNNE10 km/h14.61032 hPa0.0 mm
06/10/2022 10:3114.5 °C78 %10.7 °C3 km/hNNE6 km/h14.51032 hPa0.0 mm
06/10/2022 10:2614.3 °C79 %10.7 °C3 km/hN6 km/h14.31032 hPa0.0 mm
06/10/2022 10:1614.1 °C80 %10.7 °C2 km/hNNE5 km/h14.11032 hPa0.0 mm
06/10/2022 10:1113.9 °C79 %10.4 °C2 km/hN3 km/h13.91032 hPa0.0 mm
06/10/2022 10:0114.1 °C81 %10.8 °C-N3 km/h14.11032 hPa0.0 mm
06/10/2022 09:5613.8 °C83 %10.9 °C-NW3 km/h13.81032 hPa0.0 mm
06/10/2022 09:4612.9 °C86 %10.7 °C-3 km/h12.91031 hPa0.0 mm
06/10/2022 09:4112.6 °C90 %11.0 °C3 km/hONO3 km/h12.61031 hPa0.0 mm
06/10/2022 09:3111.5 °C92 %10.2 °C-ONO3 km/h11.51031 hPa0.0 mm
06/10/2022 09:2611.1 °C91 %9.6 °C-ONO2 km/h11.11031 hPa0.0 mm
06/10/2022 09:1610.5 °C92 %9.3 °C-ONO3 km/h10.51031 hPa0.0 mm
06/10/2022 09:1110.2 °C92 %8.9 °C-ONO2 km/h10.21031 hPa0.0 mm
06/10/2022 09:019.3 °C92 %8.1 °C---9.31031 hPa0.0 mm
06/10/2022 08:568.9 °C92 %7.7 °C-ONO2 km/h8.91031 hPa0.0 mm
06/10/2022 08:468.7 °C91 %7.3 °C---8.71031 hPa0.0 mm
06/10/2022 08:418.7 °C91 %7.3 °C---8.71031 hPa0.0 mm
06/10/2022 08:318.7 °C91 %7.3 °C---8.71031 hPa0.0 mm
06/10/2022 08:168.8 °C90 %7.3 °C---8.81031 hPa0.0 mm
06/10/2022 08:118.9 °C90 %7.4 °C-ONO2 km/h8.91031 hPa0.0 mm
06/10/2022 08:019.1 °C90 %7.6 °C---9.11031 hPa0.0 mm
06/10/2022 07:569.2 °C90 %7.6 °C-ONO2 km/h9.21031 hPa0.0 mm
06/10/2022 07:469.3 °C90 %7.7 °C2 km/hONO3 km/h9.31031 hPa0.0 mm
06/10/2022 07:419.4 °C90 %7.8 °C2 km/hONO3 km/h9.41030 hPa0.0 mm
06/10/2022 07:319.6 °C89 %7.9 °C2 km/hO2 km/h9.61030 hPa0.0 mm
06/10/2022 07:269.7 °C89 %8.0 °C2 km/hO2 km/h9.71030 hPa0.0 mm
06/10/2022 07:169.9 °C89 %8.2 °C---9.91030 hPa0.0 mm
06/10/2022 07:119.9 °C89 %8.2 °C---9.91030 hPa0.0 mm
06/10/2022 07:0110.2 °C88 %8.3 °C-O3 km/h10.21030 hPa0.0 mm
06/10/2022 06:5610.3 °C88 %8.4 °C-ONO3 km/h10.31030 hPa0.0 mm
06/10/2022 06:4610.5 °C88 %8.6 °C2 km/hONO3 km/h10.51030 hPa0.0 mm
06/10/2022 06:4110.6 °C87 %8.5 °C2 km/hONO3 km/h10.61030 hPa0.0 mm
06/10/2022 06:3110.8 °C87 %8.8 °C2 km/hONO2 km/h10.81030 hPa0.0 mm
06/10/2022 06:2610.9 °C86 %8.7 °C2 km/hONO2 km/h10.91030 hPa0.0 mm
06/10/2022 06:1611.2 °C85 %8.7 °C---11.21030 hPa0.0 mm
06/10/2022 06:1111.3 °C85 %8.9 °C-ONO2 km/h11.31030 hPa0.0 mm
06/10/2022 06:0111.6 °C84 %8.9 °C-ONO2 km/h11.61030 hPa0.0 mm
06/10/2022 05:5611.7 °C84 %9.1 °C-ONO2 km/h11.71030 hPa0.0 mm
06/10/2022 05:4611.9 °C84 %9.3 °C2 km/hNNO3 km/h11.91029 hPa0.0 mm
06/10/2022 05:4112.0 °C83 %9.2 °C-NNO3 km/h12.01029 hPa0.0 mm
06/10/2022 05:3112.2 °C83 %9.4 °C2 km/hNNO3 km/h12.21029 hPa0.0 mm
06/10/2022 05:2612.3 °C83 %9.5 °C-NW3 km/h12.31029 hPa0.0 mm
06/10/2022 05:1612.5 °C82 %9.5 °C2 km/hNNO5 km/h12.51029 hPa0.0 mm
06/10/2022 05:1112.6 °C82 %9.6 °C3 km/hNW5 km/h12.61029 hPa0.0 mm
06/10/2022 05:0112.8 °C81 %9.6 °C2 km/hNO6 km/h12.81029 hPa0.0 mm
06/10/2022 04:5612.8 °C81 %9.7 °C-NW6 km/h12.81029 hPa0.0 mm
06/10/2022 04:4613.0 °C80 %9.6 °C3 km/hNNO6 km/h13.01029 hPa0.0 mm
06/10/2022 04:4113.1 °C80 %9.7 °C2 km/hNW5 km/h13.11029 hPa0.0 mm
06/10/2022 04:3113.3 °C79 %9.8 °C3 km/h6 km/h13.31029 hPa0.0 mm
06/10/2022 04:2613.4 °C79 %9.9 °C3 km/hNNO5 km/h13.41029 hPa0.0 mm
06/10/2022 04:1613.7 °C77 %9.7 °C3 km/hN6 km/h13.71028 hPa0.0 mm
06/10/2022 04:1113.8 °C77 %9.8 °C3 km/hNNO13 km/h13.81028 hPa0.0 mm
06/10/2022 04:0113.9 °C77 %9.9 °C6 km/h13 km/h13.91028 hPa0.0 mm
06/10/2022 03:5614.0 °C77 %10.0 °C5 km/hN13 km/h14.01028 hPa0.0 mm
06/10/2022 03:4614.1 °C77 %10.1 °C6 km/hNNE13 km/h14.11028 hPa0.0 mm
06/10/2022 03:4114.2 °C77 %10.2 °C10 km/hNW13 km/h14.21028 hPa0.0 mm
06/10/2022 03:3114.4 °C77 %10.5 °C6 km/hN16 km/h14.41028 hPa0.0 mm
06/10/2022 03:2614.6 °C77 %10.6 °C6 km/hNNO16 km/h14.61028 hPa0.0 mm
06/10/2022 03:1614.7 °C79 %11.1 °C6 km/hNO15 km/h14.71028 hPa0.0 mm
06/10/2022 03:1114.7 °C80 %11.3 °C3 km/hNNO15 km/h14.71028 hPa0.0 mm
06/10/2022 03:0114.7 °C82 %11.7 °C3 km/hNO11 km/h14.71028 hPa0.0 mm
06/10/2022 02:5614.8 °C82 %11.7 °C2 km/hNW11 km/h14.81028 hPa0.0 mm
06/10/2022 02:4614.8 °C82 %11.8 °C3 km/hNO8 km/h14.81028 hPa0.0 mm
06/10/2022 02:4114.9 °C82 %11.8 °C3 km/hONO5 km/h14.91028 hPa0.0 mm
06/10/2022 02:3114.9 °C81 %11.7 °C3 km/hNO6 km/h14.91028 hPa0.0 mm
06/10/2022 02:2614.9 °C81 %11.7 °C2 km/hONO8 km/h14.91028 hPa0.0 mm
06/10/2022 02:1614.8 °C81 %11.6 °C3 km/hNNO6 km/h14.81027 hPa0.0 mm
06/10/2022 02:1114.9 °C81 %11.7 °C-NNO5 km/h14.91027 hPa0.0 mm
06/10/2022 02:0115.0 °C81 %11.8 °C3 km/h--15.01027 hPa0.0 mm
06/10/2022 01:5615.0 °C80 %11.6 °C3 km/hONO6 km/h15.01027 hPa0.0 mm
06/10/2022 01:4615.1 °C80 %11.7 °C3 km/hONO8 km/h15.11027 hPa0.0 mm
06/10/2022 01:4115.2 °C80 %11.7 °C5 km/hONO8 km/h15.21027 hPa0.0 mm
06/10/2022 01:3115.2 °C81 %12.0 °C3 km/hONO5 km/h15.21027 hPa0.0 mm
06/10/2022 01:2615.2 °C81 %12.0 °C2 km/hONO5 km/h15.21027 hPa0.0 mm
06/10/2022 01:1615.2 °C82 %12.2 °C5 km/hNO8 km/h15.21027 hPa0.0 mm
06/10/2022 01:1115.2 °C82 %12.2 °C2 km/hNW8 km/h15.21027 hPa0.0 mm
06/10/2022 01:0115.3 °C83 %12.4 °C3 km/hONO6 km/h15.31027 hPa0.0 mm
06/10/2022 00:5615.3 °C83 %12.4 °C2 km/hNNO6 km/h15.31027 hPa0.0 mm
06/10/2022 00:4615.3 °C83 %12.5 °C3 km/hNNO8 km/h15.31026 hPa0.0 mm
06/10/2022 00:4115.4 °C82 %12.3 °C2 km/hNNO8 km/h15.41026 hPa0.0 mm
06/10/2022 00:3115.4 °C82 %12.4 °C6 km/hNNO11 km/h15.41026 hPa0.0 mm
06/10/2022 00:2615.4 °C81 %12.2 °C6 km/hNNO18 km/h15.41026 hPa0.0 mm
06/10/2022 00:1615.6 °C81 %12.4 °C16 km/hNNO19 km/h15.21026 hPa0.0 mm
06/10/2022 00:0115.8 °C82 %12.7 °C8 km/hNNO18 km/h15.81026 hPa0.0 mm


Minima :

Température : 8.7 °C
Humidité : 50 %
Point de rosée : 6.8 °C
Vent moyen : 2 km/h
Windchill : 8.7
Pression atm. : 1026 hPa
Maxima :

Température : 20.6 °C
Humidité : 92 %
Point de rosée : 12.7 °C
Vent moyen : 16 km/h
Windchill : 20.6
Pression atm. : 1032 hPa
Rafales max : 19 km/h
Cumul de pluie sur 24H : 0 mm

Bellegarde est une commune du département Loiret (45).
La station météorologique du réseau de l'association la plus proche de Bellegarde est celle de Saint-Firmin-des-Bois
Site du propriétaire de la station : meteo-grognon.com



Icône Facebook Association Météo Centre Icône Twitter Association Météo Centre Icône Chaîne Youtube Association Météo Centre Icône contact Association Météo Centre Icône Insta Association Météo Centre